Ana Sayfa
METAR-TAF:

METAR-TAF

Havaalanları :

Chichén Itzá, Meksika

Enlem: 20-38-30N, Boylam: 088-26-58W, yükseklik: 31 m

Güncel hava durumu gözlemi

Rapor saat 20:45 UTC de 2 saat ve 19 dakika önce yapıldı.
Rüzgar doğudan 9 kt
Sıcaklık 31°C
Nem 40%
Basınç 1012 hPa
Görüş mesafesi: 12.9 km
3000 ft yükseklikte parçalı çok bulutlu

METAR: MMCT 262045Z 10009KT 8SM BKN030 31/16 A2989 RMK 8/400

Saat: 17:04 (23:04 UTC)


TAF: eksik

4.000'den fazla havaalanı için hava durumu gözlemleri ve tahminleri (METAR ve TAF raporları).

Kullanılabilir istasyonlar harita üzerinde sarı ve kırmızı noktalarla gösterilir.

İstasyonun adını görmek için fareyi noktanın üzerinde gezdirin.

Sonrasında hava gözlem ve tahminlerini görmek için tıklayın.

Haritayı değiştirmek için: yaklaştırmak için siyah artı işaretli yeşil düğmeye ve uzaklaştırmak için de eksi işaretli düğmeye hızla tıklayın; bitişik haritalar için yeşil okları kullanın.


METAR-TAF: